Dara'a, Syria

11:33 PM EEST on July 23, 2016 (GMT +0300)
Marka International | | Change Station

Elev 2556 ft 31.97 °N, 35.99 °E | Updated 33 minutes ago

Haze
Haze
73 °F
Feels Like 73 °F
N
5
Wind Variable Wind from NNW

Today
High -- | Low -- °F
--% Chance of Precip.
Yesterday
High -- | Low -- °F
Precip. -- in
Pressure 29.86 in
Visibility 3.1 miles
Clouds
Dew Point 55 °F
Humidity 53%
Rainfall 0.00 in
Snow Depth Not available.
5:43 AM 7:39 PM
Waning Gibbous, 83% visible
METAR OJAM 232000Z 33004KT 5000 HZ NSC 23/13 Q1011 NOSIG
Pressure 29.86 in
Visibility 3.1 miles
Clouds
Dew Point 55 °F
Humidity 53%
Rainfall 0.00 in
Snow Depth Not available.
5:43 AM 7:39 PM
Waning Gibbous, 83% visible
METAR OJAM 232000Z 33004KT 5000 HZ NSC 23/13 Q1011 NOSIG

10-Day Weather Forecast

No radar image for this location.
×

Almanac

Astronomy

Jul. 23, 2016 Rise Set
Actual Time
Civil Twilight
Nautical Twilight
Astronomical Twilight
Moon
Length of Visible Light
Length of Day
Tomorrow will be .
, % of the Moon is Illuminated

Today's Extremes

Country Highs Country Lows

Community

WunderPhotos

Upload Photos

1,926,918 photos uploaded!

WunderBlog® & News

Nearby

Air Quality

  Air Quality AQ Index Pollutant
Not available.

Snow Depth

Station Depth Elevation

Earthquake Activity

City Distance Mag. Time & Date
Minimum magnitude displayed is 2.5.

Coastal Water Temperatures

Place Temperature

Stations

Nearby Weather Stations

Station Location Temp. Windchill Dew Point Humidity Wind Precip. Elev Updated Type